Time;durP1;ratioP1;P1;durP2;ratioP2;P2;SDS_P1;SDS_P2;PMS_P1;PMS_P2;Temp;Humidity;BMP_temperature;BMP_pressure;BME280_temperature;BME280_humidity;BME280_pressure;Samples;Min_cycle;Max_cycle;Signal;HPM_P1;HPM_P2
2023/06/12 00:01:03;;;;;;;4.45;2.28;;;;;;;19.45;82.30;99066.25;5091652;28;20109;-82
2023/06/12 00:03:29;;;;;;;5.57;3.72;;;;;;;19.40;81.82;99055.00;5092772;28;20038;-83
2023/06/12 00:05:59;;;;;;;5.50;3.88;;;;;;;19.25;82.09;99032.72;5101824;28;20031;-82
2023/06/12 00:08:30;;;;;;;5.30;3.90;;;;;;;19.31;82.74;99066.25;5091523;28;20043;-82
2023/06/12 00:10:56;;;;;;;5.03;3.80;;;;;;;19.25;82.48;99058.59;5101171;28;20038;-82
2023/06/12 00:13:22;;;;;;;5.50;3.65;;;;;;;19.23;81.46;99039.09;5111780;28;20027;-82
2023/06/12 00:15:48;;;;;;;3.97;2.30;;;;;;;18.98;82.17;99048.59;5111895;28;20038;-81
2023/06/12 00:18:14;;;;;;;4.72;2.33;;;;;;;18.96;82.01;99053.19;5111790;28;20053;-82
2023/06/12 00:20:39;;;;;;;3.90;2.60;;;;;;;18.94;82.26;99063.13;5076261;28;20129;-81
2023/06/12 00:23:07;;;;;;;4.10;2.75;;;;;;;19.02;82.05;99068.84;5090944;28;20504;-82
2023/06/12 00:25:33;;;;;;;4.70;2.33;;;;;;;18.93;82.22;99062.25;5091543;28;20051;-82
2023/06/12 00:27:58;;;;;;;6.57;3.60;;;;;;;18.91;82.77;99080.19;5090933;28;20032;-82
2023/06/12 00:30:24;;;;;;;4.57;2.83;;;;;;;18.97;82.27;99070.94;5092309;28;20137;-82
2023/06/12 00:32:49;;;;;;;6.35;3.00;;;;;;;18.98;82.49;99093.19;5091184;28;20039;-82
2023/06/12 00:35:21;;;;;;;4.47;2.70;;;;;;;18.85;81.72;99071.69;5072734;28;20047;-82
2023/06/12 00:37:47;;;;;;;4.47;2.67;;;;;;;18.85;82.74;99099.25;5072643;28;20498;-82
2023/06/12 00:40:13;;;;;;;4.75;2.70;;;;;;;18.78;82.46;99065.78;5097236;28;20148;-82
2023/06/12 00:42:47;;;;;;;5.72;3.22;;;;;;;18.85;81.75;99069.00;5109414;28;20038;-82
2023/06/12 00:45:15;;;;;;;2.80;2.00;;;;;;;18.92;81.13;99102.41;5111414;28;20115;-82
2023/06/12 00:47:42;;;;;;;2.58;1.83;;;;;;;19.03;80.66;99104.44;5092686;28;20071;-82
2023/06/12 00:50:12;;;;;;;3.10;2.55;;;;;;;18.63;82.53;99093.38;5110549;28;20069;-82
2023/06/12 00:52:41;;;;;;;4.72;2.83;;;;;;;18.60;83.55;99091.78;5109172;28;20072;-82
2023/06/12 00:55:06;;;;;;;3.83;2.40;;;;;;;18.85;83.04;99109.09;5110473;28;20032;-82
2023/06/12 00:57:32;;;;;;;6.25;2.60;;;;;;;18.69;82.97;99080.56;5106320;28;20024;-82
2023/06/12 01:00:01;;;;;;;3.60;2.83;;;;;;;18.54;83.75;99070.75;5090413;28;20032;-82
2023/06/12 01:02:27;;;;;;;5.28;2.88;;;;;;;18.82;82.88;99099.41;5090668;28;20035;-82
2023/06/12 01:04:53;;;;;;;4.10;2.90;;;;;;;18.61;84.04;99104.16;5090215;28;20024;-82
2023/06/12 01:07:43;;;;;;;6.32;3.38;;;;;;;18.70;84.46;99117.00;5091008;28;20020;-82
2023/06/12 01:10:28;;;;;;;4.65;2.75;;;;;;;18.59;84.10;99076.69;5090510;28;20108;-82
2023/06/12 01:12:54;;;;;;;4.63;2.43;;;;;;;18.67;83.64;99094.94;5070672;28;20024;-83
2023/06/12 01:15:20;;;;;;;11.50;2.50;;;;;;;18.86;83.56;99100.09;5090367;28;20046;-83
2023/06/12 01:17:45;;;;;;;7.72;3.03;;;;;;;18.83;83.33;99106.47;5090455;28;20410;-82
2023/06/12 01:20:12;;;;;;;4.15;2.38;;;;;;;18.66;83.69;99086.09;5089939;28;20481;-82
2023/06/12 01:22:54;;;;;;;5.57;2.88;;;;;;;18.61;83.68;99078.34;5099050;28;20036;-82
2023/06/12 01:25:38;;;;;;;3.78;2.95;;;;;;;18.67;84.56;99109.16;5092171;28;20467;-82
2023/06/12 01:28:28;;;;;;;4.32;2.78;;;;;;;18.61;84.46;99107.72;5110206;28;20484;-82
2023/06/12 01:31:06;;;;;;;3.60;2.53;;;;;;;18.59;84.44;99106.91;5111031;28;20028;-82
2023/06/12 01:33:36;;;;;;;2.35;1.70;;;;;;;18.22;84.09;99044.09;5108539;28;20039;-82
2023/06/12 01:36:03;;;;;;;5.30;3.15;;;;;;;18.51;83.66;99087.81;5110475;28;20032;-82
2023/06/12 01:38:32;;;;;;;5.70;4.10;;;;;;;18.50;83.76;99093.25;5109552;28;20036;-82
2023/06/12 01:40:59;;;;;;;4.22;2.47;;;;;;;18.15;83.75;99058.72;5110116;28;20035;-82
2023/06/12 01:43:25;;;;;;;3.47;2.28;;;;;;;18.41;83.69;99091.94;5108160;28;20054;-82
2023/06/12 01:45:50;;;;;;;3.30;2.08;;;;;;;18.28;83.63;99073.09;5110073;28;20036;-82
2023/06/12 01:48:16;;;;;;;5.78;2.78;;;;;;;18.13;84.14;99052.63;5095425;28;20513;-82
2023/06/12 01:50:42;;;;;;;2.40;2.08;;;;;;;18.43;84.33;99108.75;5089884;28;20107;-82
2023/06/12 01:53:15;;;;;;;5.03;3.30;;;;;;;18.45;84.46;99093.50;5095830;28;20036;-82
2023/06/12 01:55:41;;;;;;;4.35;2.70;;;;;;;18.46;84.06;99086.34;5092699;28;20036;-82
2023/06/12 01:58:07;;;;;;;3.92;2.58;;;;;;;18.54;84.50;99102.81;5109802;28;20031;-82
2023/06/12 02:00:32;;;;;;;3.25;1.88;;;;;;;18.30;84.51;99068.53;5110024;28;20024;-82
2023/06/12 02:02:58;;;;;;;6.22;2.85;;;;;;;18.38;84.83;99092.13;5087992;28;20032;-82
2023/06/12 02:05:23;;;;;;;3.75;2.50;;;;;;;18.38;84.63;99084.13;5089708;28;20035;-82
2023/06/12 02:07:49;;;;;;;3.67;2.60;;;;;;;18.42;83.61;99097.19;5090608;28;20560;-82
2023/06/12 02:10:15;;;;;;;2.95;2.38;;;;;;;18.42;82.32;99083.84;5090307;28;20031;-82
2023/06/12 02:12:43;;;;;;;4.00;2.55;;;;;;;18.43;82.84;99109.63;5071413;28;20575;-82
2023/06/12 02:15:10;;;;;;;4.10;2.85;;;;;;;18.38;83.20;99113.47;5102396;28;20574;-82
2023/06/12 02:17:36;;;;;;;4.97;2.47;;;;;;;18.11;82.79;99078.53;5090254;28;20028;-82
2023/06/12 02:20:03;;;;;;;3.90;3.53;;;;;;;17.94;83.37;99063.47;5109424;28;20034;-82
2023/06/12 02:22:28;;;;;;;3.28;1.92;;;;;;;17.93;84.64;99089.28;5099748;28;20028;-82
2023/06/12 02:24:54;;;;;;;4.03;2.72;;;;;;;18.01;84.34;99105.75;5073472;28;20083;-82
2023/06/12 02:27:19;;;;;;;3.42;2.28;;;;;;;18.28;84.19;99121.16;5075303;28;20028;-82
2023/06/12 02:29:45;;;;;;;5.20;3.13;;;;;;;18.29;84.07;99116.66;5093421;28;20081;-82
2023/06/12 02:32:12;;;;;;;3.75;2.63;;;;;;;18.32;84.05;99112.03;5094274;28;20028;-82
2023/06/12 02:34:37;;;;;;;2.38;1.85;;;;;;;18.34;84.05;99106.63;5094791;28;20031;-82
2023/06/12 02:37:04;;;;;;;4.55;3.08;;;;;;;18.21;84.19;99088.63;5105725;28;20066;-83
2023/06/12 02:39:30;;;;;;;13.52;2.65;;;;;;;18.26;84.48;99096.38;5093511;28;20409;-82
2023/06/12 02:41:55;;;;;;;2.38;1.88;;;;;;;18.25;84.58;99091.97;5092771;28;20036;-82
2023/06/12 02:44:21;;;;;;;4.90;2.83;;;;;;;18.45;84.47;99122.03;5093092;28;20090;-82
2023/06/12 02:46:51;;;;;;;3.30;2.90;;;;;;;18.66;84.35;99127.94;5093909;28;20627;-82
2023/06/12 02:49:18;;;;;;;3.72;2.53;;;;;;;18.66;83.83;99135.94;5074685;28;20032;-82
2023/06/12 02:51:44;;;;;;;13.35;2.80;;;;;;;18.48;84.24;99108.50;5092872;28;20028;-83
2023/06/12 02:54:10;;;;;;;5.32;3.30;;;;;;;18.50;84.29;99107.44;5078309;28;20493;-83
2023/06/12 02:56:36;;;;;;;4.05;2.75;;;;;;;18.69;84.09;99133.09;5111797;28;20536;-82
2023/06/12 02:59:02;;;;;;;3.33;2.45;;;;;;;18.56;84.39;99112.44;5111817;28;20063;-83
2023/06/12 03:01:28;;;;;;;3.05;2.38;;;;;;;18.76;84.35;99134.47;5113103;28;20032;-82
2023/06/12 03:03:56;;;;;;;5.07;2.47;;;;;;;18.75;84.36;99133.63;5111766;28;20039;-82
2023/06/12 03:06:26;;;;;;;3.38;2.17;;;;;;;18.50;84.01;99083.41;5094476;28;20031;-82
2023/06/12 03:08:52;;;;;;;3.78;2.45;;;;;;;18.76;84.00;99139.81;5111119;28;20409;-82
2023/06/12 03:11:19;;;;;;;3.92;2.50;;;;;;;18.76;83.47;99115.78;5113436;28;20031;-81
2023/06/12 03:13:45;;;;;;;3.95;3.22;;;;;;;18.83;83.26;99124.28;5110308;27;20509;-82
2023/06/12 03:16:10;;;;;;;4.38;2.42;;;;;;;19.04;83.03;99135.59;5091831;28;20035;-84
2023/06/12 03:18:36;;;;;;;6.22;2.72;;;;;;;18.84;83.33;99123.34;5092511;28;20059;-83
2023/06/12 03:21:01;;;;;;;6.57;3.95;;;;;;;18.98;83.49;99134.13;5091656;28;20031;-84
2023/06/12 03:23:27;;;;;;;4.85;3.92;;;;;;;19.22;83.09;99158.56;5072978;28;20547;-84
2023/06/12 03:25:52;;;;;;;4.53;2.92;;;;;;;19.11;83.24;99132.47;5092141;28;21331;-85
2023/06/12 03:28:18;;;;;;;4.93;3.13;;;;;;;19.12;81.61;99114.59;5073230;28;20516;-84
2023/06/12 03:30:43;;;;;;;6.47;3.50;;;;;;;19.18;80.63;99124.06;5092430;28;20030;-83
2023/06/12 03:33:09;;;;;;;3.38;2.35;;;;;;;19.10;81.15;99119.19;5091199;28;20626;-83
2023/06/12 03:35:35;;;;;;;4.18;3.40;;;;;;;19.13;81.35;99129.69;5092064;28;20061;-84
2023/06/12 03:38:01;;;;;;;15.27;3.17;;;;;;;19.39;80.79;99160.22;5112198;28;20036;-84
2023/06/12 03:40:26;;;;;;;2.67;2.35;;;;;;;19.11;81.40;99116.41;5109417;28;20047;-84
2023/06/12 03:42:52;;;;;;;5.18;2.58;;;;;;;19.27;82.01;99136.91;5112037;28;20046;-83
2023/06/12 03:45:17;;;;;;;5.95;2.47;;;;;;;19.32;81.96;99129.44;5111533;28;20043;-83
2023/06/12 03:47:43;;;;;;;8.15;4.05;;;;;;;19.54;82.21;99155.78;5111430;28;20108;-83
2023/06/12 03:50:10;;;;;;;6.07;4.00;;;;;;;19.61;80.75;99135.69;5109878;28;20106;-84
2023/06/12 03:52:35;;;;;;;4.45;2.78;;;;;;;19.61;80.86;99126.81;5110974;28;20028;-83
2023/06/12 03:55:01;;;;;;;4.78;3.50;;;;;;;19.92;80.65;99155.25;5093008;28;20088;-84
2023/06/12 03:57:26;;;;;;;4.28;3.00;;;;;;;19.63;79.70;99116.88;5105289;28;20031;-84
2023/06/12 03:59:52;;;;;;;8.73;2.83;;;;;;;19.91;79.99;99144.63;5111829;28;20035;-84
2023/06/12 04:02:17;;;;;;;4.40;2.95;;;;;;;19.76;80.15;99117.84;5111978;28;20114;-83
2023/06/12 04:04:43;;;;;;;5.20;2.80;;;;;;;20.01;79.30;99125.22;5109430;27;20031;-83
2023/06/12 04:07:08;;;;;;;3.85;2.47;;;;;;;19.92;81.40;99139.19;5109914;28;20024;-83
2023/06/12 04:09:34;;;;;;;10.30;3.22;;;;;;;20.16;80.98;99155.53;5095686;28;20537;-83
2023/06/12 04:12:00;;;;;;;13.05;3.78;;;;;;;20.33;79.96;99150.94;5097858;27;20040;-83
2023/06/12 04:14:25;;;;;;;7.75;4.18;;;;;;;20.28;80.06;99129.81;5091659;28;20139;-83
2023/06/12 04:16:51;;;;;;;6.63;3.20;;;;;;;20.44;79.40;99143.06;5096963;27;20039;-83
2023/06/12 04:19:17;;;;;;;5.28;2.90;;;;;;;20.47;79.42;99134.81;5095497;28;20024;-82
2023/06/12 04:21:42;;;;;;;5.72;3.63;;;;;;;20.63;79.11;99142.72;5098237;28;20239;-83
2023/06/12 04:24:15;;;;;;;6.07;3.85;;;;;;;20.75;78.92;99141.94;5091157;28;20028;-83
2023/06/12 04:26:44;;;;;;;8.10;4.25;;;;;;;20.66;79.62;99137.19;5091308;28;20095;-83
2023/06/12 04:29:12;;;;;;;6.03;3.35;;;;;;;20.74;80.48;99155.44;5091970;28;20036;-83
2023/06/12 04:31:37;;;;;;;4.57;2.25;;;;;;;20.65;80.03;99130.13;5092543;28;20032;-82
2023/06/12 04:34:03;;;;;;;6.15;3.53;;;;;;;20.80;79.36;99143.47;5095701;27;20039;-83
2023/06/12 04:36:28;;;;;;;11.13;3.67;;;;;;;20.70;79.31;99128.00;5097842;28;20125;-82
2023/06/12 04:38:56;;;;;;;4.35;3.42;;;;;;;20.73;78.86;99117.06;5096818;28;20027;-82
2023/06/12 04:41:27;;;;;;;4.53;3.60;;;;;;;20.96;79.37;99121.84;5094356;28;20051;-83
2023/06/12 04:43:58;;;;;;;4.97;3.00;;;;;;;21.46;77.92;99164.03;5096044;28;20055;-83
2023/06/12 04:46:27;;;;;;;4.47;3.40;;;;;;;21.68;76.44;99153.66;5090916;28;20063;-83
2023/06/12 04:48:53;;;;;;;4.22;2.63;;;;;;;21.70;74.84;99115.00;5101977;28;20169;-83
2023/06/12 04:51:19;;;;;;;11.98;2.97;;;;;;;21.99;74.51;99141.63;5088752;28;20519;-83
2023/06/12 04:53:47;;;;;;;5.97;2.78;;;;;;;22.08;73.18;99129.38;5109312;28;20052;-84
2023/06/12 04:56:20;;;;;;;3.80;1.75;;;;;;;21.98;73.27;99111.25;5111267;28;20032;-83
2023/06/12 04:58:46;;;;;;;4.68;2.97;;;;;;;21.99;72.80;99144.31;5111074;28;20479;-82
2023/06/12 05:01:12;;;;;;;9.77;3.03;;;;;;;22.06;72.34;99131.28;5098847;27;20138;-82
2023/06/12 05:03:40;;;;;;;4.32;2.92;;;;;;;22.17;71.72;99131.41;5093111;28;20039;-82
2023/06/12 05:06:06;;;;;;;3.25;2.17;;;;;;;22.09;73.21;99120.34;5095069;28;20477;-82
2023/06/12 05:08:32;;;;;;;5.53;3.30;;;;;;;21.79;74.24;99135.81;5095371;28;20417;-86
2023/06/12 05:10:58;;;;;;;9.95;3.85;;;;;;;21.98;75.47;99113.94;5092883;28;20145;-87
2023/06/12 05:13:23;;;;;;;3.22;2.75;;;;;;;22.34;71.29;99127.53;5093389;28;20020;-88
2023/06/12 05:15:49;;;;;;;4.60;2.30;;;;;;;22.18;71.86;99117.88;5093075;28;20471;-89
2023/06/12 05:18:15;;;;;;;3.17;2.10;;;;;;;22.74;68.85;99155.97;5076862;28;20500;-86
2023/06/12 05:20:41;;;;;;;5.95;2.90;;;;;;;22.93;66.89;99167.09;5097948;27;20152;-85
2023/06/12 05:23:07;;;;;;;4.30;2.00;;;;;;;22.71;67.00;99138.25;5101384;28;20028;-88
2023/06/12 05:25:32;;;;;;;5.70;2.67;;;;;;;22.96;66.17;99160.63;5082715;28;20028;-87
2023/06/12 05:27:58;;;;;;;7.60;3.17;;;;;;;23.32;67.01;99166.91;5094209;28;20035;-85
2023/06/12 05:30:23;;;;;;;3.95;2.85;;;;;;;23.81;65.04;99173.03;5099400;28;20535;-85
2023/06/12 05:32:49;;;;;;;8.00;3.95;;;;;;;23.91;65.00;99171.34;5094003;28;20028;-86
2023/06/12 05:35:15;;;;;;;16.83;9.15;;;;;;;23.70;64.60;99155.88;5094243;28;20122;-86
2023/06/12 05:37:40;;;;;;;11.90;6.55;;;;;;;23.87;63.96;99124.13;5095623;28;20139;-85
2023/06/12 05:40:09;;;;;;;8.07;4.38;;;;;;;23.70;63.78;99158.56;5100834;28;20449;-86
2023/06/12 05:42:37;;;;;;;5.53;4.55;;;;;;;23.72;64.81;99153.06;5093823;28;20035;-85
2023/06/12 05:45:03;;;;;;;7.53;3.65;;;;;;;23.81;64.50;99152.34;5082290;28;20040;-86
2023/06/12 05:47:29;;;;;;;4.40;3.05;;;;;;;24.37;62.44;99140.72;5099204;28;20031;-86
2023/06/12 05:49:55;;;;;;;6.40;3.35;;;;;;;24.29;61.63;99105.47;5091223;27;20039;-86
2023/06/12 05:52:20;;;;;;;4.60;2.85;;;;;;;24.65;60.79;99135.81;5077687;28;20031;-87
2023/06/12 05:54:46;;;;;;;4.07;3.15;;;;;;;24.62;61.25;99109.97;5075782;28;20035;-87
2023/06/12 05:57:13;;;;;;;5.90;3.00;;;;;;;25.14;59.89;99157.84;5096773;28;20032;-87
2023/06/12 05:59:39;;;;;;;3.88;2.40;;;;;;;24.72;57.94;99111.91;5095493;28;20429;-87
2023/06/12 06:02:04;;;;;;;3.67;2.22;;;;;;;24.33;59.60;99104.25;5093362;28;20024;-87
2023/06/12 06:04:31;;;;;;;3.17;2.15;;;;;;;24.48;60.57;99146.13;5106768;28;20118;-89
2023/06/12 06:06:57;;;;;;;13.27;3.00;;;;;;;24.68;59.39;99178.69;5109763;28;20661;-89
2023/06/12 06:09:22;;;;;;;3.95;2.72;;;;;;;24.51;61.42;99139.59;5090348;28;20505;-89
2023/06/12 06:11:48;;;;;;;4.85;2.35;;;;;;;24.96;58.68;99122.47;5097106;28;20035;-88
2023/06/12 06:14:14;;;;;;;3.78;3.15;;;;;;;25.44;58.82;99143.63;5076271;28;20043;-87
2023/06/12 06:16:40;;;;;;;5.50;4.13;;;;;;;25.87;57.32;99144.44;5093694;28;20147;-87
2023/06/12 06:19:07;;;;;;;4.32;2.47;;;;;;;25.98;57.00;99166.03;5101114;28;20030;-87
2023/06/12 06:21:33;;;;;;;3.95;2.47;;;;;;;25.26;58.36;99146.03;5079198;28;20048;-86
2023/06/12 06:23:58;;;;;;;8.50;3.60;;;;;;;25.61;57.32;99150.28;5097795;28;20061;-86
2023/06/12 06:26:24;;;;;;;4.55;3.05;;;;;;;26.08;57.94;99177.72;5079142;28;20032;-86
2023/06/12 06:28:50;;;;;;;5.22;3.35;;;;;;;26.34;55.51;99158.34;5099928;28;20042;-86
2023/06/12 06:31:16;;;;;;;5.25;3.55;;;;;;;26.35;56.84;99122.19;5095777;28;20092;-88
2023/06/12 06:33:41;;;;;;;4.65;2.95;;;;;;;27.05;56.77;99146.56;5097886;28;20028;-86
2023/06/12 06:36:07;;;;;;;5.43;3.22;;;;;;;27.81;53.59;99181.00;5093462;28;20086;-87
2023/06/12 06:38:33;;;;;;;5.50;3.03;;;;;;;27.92;52.29;99139.31;5092993;28;20031;-86
2023/06/12 06:40:59;;;;;;;7.45;3.47;;;;;;;28.06;49.80;99129.03;5099955;28;20315;-87
2023/06/12 06:43:25;;;;;;;4.28;2.45;;;;;;;28.26;48.87;99173.19;5097619;28;20043;-86
2023/06/12 06:45:50;;;;;;;6.95;2.75;;;;;;;27.39;50.42;99143.44;5098537;28;20032;-85
2023/06/12 06:48:16;;;;;;;5.47;3.50;;;;;;;27.65;52.05;99159.94;5094474;28;20389;-85
2023/06/12 06:50:42;;;;;;;5.38;2.63;;;;;;;27.72;48.51;99143.94;5077127;28;20455;-87
2023/06/12 06:53:07;;;;;;;3.15;2.10;;;;;;;28.52;47.99;99166.06;5091162;28;20070;-86
2023/06/12 06:55:33;;;;;;;3.08;2.35;;;;;;;28.71;47.15;99166.97;5092237;28;20303;-87
2023/06/12 06:58:00;;;;;;;5.07;3.65;;;;;;;28.60;48.32;99153.63;5098036;28;20041;-86
2023/06/12 07:00:27;;;;;;;3.83;2.13;;;;;;;28.97;47.83;99161.66;5097867;28;20036;-87
2023/06/12 07:02:52;;;;;;;5.78;3.17;;;;;;;28.91;44.07;99146.00;5101801;28;20074;-85
2023/06/12 07:05:20;;;;;;;3.72;2.13;;;;;;;29.40;43.14;99165.47;5094134;28;20055;-88
2023/06/12 07:07:47;;;;;;;5.05;2.67;;;;;;;29.31;42.83;99171.84;5095546;28;20069;-86
2023/06/12 07:10:12;;;;;;;4.93;2.55;;;;;;;28.86;41.51;99113.03;5093559;28;20032;-86
2023/06/12 07:12:38;;;;;;;2.22;1.40;;;;;;;29.08;40.94;99126.13;5098022;28;20024;-87
2023/06/12 07:15:04;;;;;;;5.53;2.45;;;;;;;29.43;42.71;99132.56;5095502;28;20105;-86
2023/06/12 07:17:30;;;;;;;2.83;1.70;;;;;;;29.63;40.59;99106.06;5077492;28;20089;-87
2023/06/12 07:19:55;;;;;;;4.03;2.35;;;;;;;30.11;41.60;99132.88;5101425;28;20038;-86
2023/06/12 07:22:21;;;;;;;4.15;2.67;;;;;;;29.45;42.41;99102.53;5111053;27;20100;-86
2023/06/12 07:24:47;;;;;;;3.67;2.08;;;;;;;29.84;41.61;99123.88;5113011;28;20549;-83
2023/06/12 07:27:12;;;;;;;2.67;1.55;;;;;;;29.83;40.97;99111.31;5099576;28;20031;-85
2023/06/12 07:29:37;;;;;;;5.95;1.95;;;;;;;30.09;42.49;99133.03;5072604;28;20028;-85
2023/06/12 07:32:03;;;;;;;3.58;2.08;;;;;;;29.08;43.46;99103.56;5093691;28;20110;-84
2023/06/12 07:34:29;;;;;;;2.83;1.70;;;;;;;29.33;44.04;99106.53;5094326;28;20127;-83
2023/06/12 07:36:56;;;;;;;13.75;2.58;;;;;;;29.60;42.75;99108.25;5096007;28;20057;-84
2023/06/12 07:39:21;;;;;;;2.38;1.98;;;;;;;29.28;43.71;99096.13;5099827;28;20450;-83
2023/06/12 07:41:47;;;;;;;4.38;2.22;;;;;;;29.31;44.06;99136.56;5099112;28;20095;-83
2023/06/12 07:44:13;;;;;;;4.55;1.70;;;;;;;29.57;44.31;99127.59;5093229;28;20032;-83
2023/06/12 07:46:41;;;;;;;6.93;2.45;;;;;;;29.91;42.35;99146.69;5097970;28;20371;-84
2023/06/12 07:49:06;;;;;;;4.00;2.05;;;;;;;29.72;43.57;99131.44;5081821;28;20335;-83
2023/06/12 07:51:32;;;;;;;5.13;2.10;;;;;;;30.01;41.90;99132.97;5112399;28;20040;-83
2023/06/12 07:53:57;;;;;;;4.93;2.83;;;;;;;29.86;42.57;99111.00;5098413;27;21178;-84
2023/06/12 07:56:24;;;;;;;6.82;3.08;;;;;;;29.30;44.22;99115.81;5100146;27;20028;-84
2023/06/12 07:58:51;;;;;;;4.30;3.55;;;;;;;29.45;44.25;99135.97;5099926;28;20023;-83
2023/06/12 08:01:17;;;;;;;2.63;1.95;;;;;;;29.54;43.63;99120.59;5112111;28;20027;-84
2023/06/12 08:03:43;;;;;;;4.45;1.90;;;;;;;29.57;42.63;99116.72;5106881;28;20032;-83
2023/06/12 08:06:11;;;;;;;1.95;1.63;;;;;;;29.36;41.37;99098.06;5091755;28;20035;-83
2023/06/12 08:08:46;;;;;;;4.50;1.90;;;;;;;29.43;42.71;99118.16;5103614;28;20031;-83
2023/06/12 08:11:12;;;;;;;;;;;;;;;29.46;43.09;99134.97;5112355;28;20059;-82
2023/06/12 08:13:38;;;;;;;1.60;1.42;;;;;;;29.49;43.36;99127.50;5113572;27;19958;-82
2023/06/12 08:16:03;;;;;;;3.63;2.00;;;;;;;29.10;45.08;99098.81;5108887;27;20047;-82
2023/06/12 08:18:29;;;;;;;2.78;1.75;;;;;;;29.08;44.61;99098.13;5107889;27;20036;-83
2023/06/12 08:20:54;;;;;;;3.97;2.10;;;;;;;29.18;44.40;99106.19;5091500;28;20032;-83
2023/06/12 08:23:21;;;;;;;12.98;2.75;;;;;;;29.10;41.38;99112.41;5109966;28;20469;-83
2023/06/12 08:25:47;;;;;;;3.65;1.83;;;;;;;28.57;41.58;99095.06;5111899;28;20544;-83
2023/06/12 08:28:12;;;;;;;5.32;1.75;;;;;;;28.70;43.79;99084.75;5111623;28;20119;-84
2023/06/12 08:30:38;;;;;;;5.00;1.67;;;;;;;29.09;44.72;99124.28;5112031;28;20039;-82
2023/06/12 08:33:03;;;;;;;3.20;1.95;;;;;;;29.03;42.65;99095.06;5111215;28;20058;-84
2023/06/12 08:35:31;;;;;;;3.53;1.63;;;;;;;28.86;43.66;99056.06;5111828;28;20489;-83
2023/06/12 08:37:57;;;;;;;2.95;1.52;;;;;;;28.92;43.69;99086.13;5112027;28;20028;-83
2023/06/12 08:40:22;;;;;;;3.75;1.67;;;;;;;28.68;44.30;99067.75;5115601;27;20577;-84
2023/06/12 08:42:52;;;;;;;7.55;2.78;;;;;;;28.84;43.90;99068.91;5112893;27;20019;-83
2023/06/12 08:45:25;;;;;;;2.63;1.50;;;;;;;29.09;43.33;99075.44;5090965;28;20039;-83
2023/06/12 08:47:51;;;;;;;2.35;1.73;;;;;;;29.04;44.58;99078.59;5080207;27;20429;-84
2023/06/12 08:50:18;;;;;;;1.55;0.85;;;;;;;29.33;42.08;99074.78;5120898;27;20035;-82
2023/06/12 08:52:47;;;;;;;4.03;1.33;;;;;;;29.01;41.62;99059.03;5100446;28;20490;-81
2023/06/12 08:55:15;;;;;;;1.98;1.42;;;;;;;28.90;43.14;99096.31;5101589;28;20084;-83
2023/06/12 08:57:42;;;;;;;2.05;1.25;;;;;;;28.76;42.83;99026.25;5098046;28;20032;-82
2023/06/12 09:00:15;;;;;;;2.78;1.63;;;;;;;28.72;41.45;99049.31;5098012;28;20088;-81
2023/06/12 09:02:46;;;;;;;2.55;1.50;;;;;;;29.24;43.72;99076.59;5081694;28;20031;-82
2023/06/12 09:05:19;;;;;;;2.95;1.90;;;;;;;29.17;41.24;99061.06;5079060;28;20050;-82
2023/06/12 09:07:50;;;;;;;2.42;1.63;;;;;;;29.51;40.17;99082.03;5093194;28;20045;-84
2023/06/12 09:10:16;;;;;;;2.70;1.27;;;;;;;29.81;41.00;99080.72;5094037;28;20515;-84
2023/06/12 09:12:43;;;;;;;3.25;1.67;;;;;;;29.97;41.57;99088.13;5094024;28;20037;-81
2023/06/12 09:15:09;;;;;;;1.63;1.27;;;;;;;29.48;41.63;99085.91;5084355;28;20036;-82
2023/06/12 09:17:40;;;;;;;7.47;1.55;;;;;;;29.58;41.80;99037.78;5077913;28;20030;-81
2023/06/12 09:20:06;;;;;;;2.30;1.38;;;;;;;30.09;40.47;99035.16;5100274;28;20028;-80
2023/06/12 09:22:31;;;;;;;2.92;1.58;;;;;;;30.27;41.80;99062.22;5103087;28;20097;-83
2023/06/12 09:24:57;;;;;;;1.85;1.27;;;;;;;29.87;39.13;99033.84;5062415;28;20472;-82
2023/06/12 09:27:22;;;;;;;1.50;1.08;;;;;;;29.63;38.68;99075.31;5092680;28;20514;-81
2023/06/12 09:29:48;;;;;;;4.20;1.88;;;;;;;29.69;39.53;99058.38;5098084;28;20135;-83
2023/06/12 09:32:15;;;;;;;5.40;1.58;;;;;;;29.78;40.07;99042.94;5092038;28;20039;-82
2023/06/12 09:34:50;;;;;;;3.70;2.22;;;;;;;30.20;40.15;99050.31;5094492;28;20077;-82
2023/06/12 09:37:17;;;;;;;5.33;2.37;;;;;;;30.13;39.87;99060.97;5094949;28;20122;-85
2023/06/12 09:39:45;;;;;;;2.17;1.85;;;;;;;30.03;40.47;99024.94;5078346;28;20541;-82
2023/06/12 09:42:13;;;;;;;2.35;1.20;;;;;;;30.28;38.67;99025.00;5092989;28;20081;-83
2023/06/12 09:44:38;;;;;;;2.45;2.08;;;;;;;30.48;39.54;99053.63;5095647;28;20024;-84
2023/06/12 09:47:05;;;;;;;2.78;1.52;;;;;;;30.29;39.94;99030.28;5098170;28;20046;-83
2023/06/12 09:49:31;;;;;;;2.70;1.45;;;;;;;30.32;41.85;99037.22;5092078;28;20077;-86
2023/06/12 09:52:03;;;;;;;2.10;1.33;;;;;;;29.94;40.72;99034.06;5092712;28;20027;-82
2023/06/12 09:54:31;;;;;;;6.97;2.30;;;;;;;30.03;39.90;99005.91;5093321;28;20045;-84
2023/06/12 09:56:58;;;;;;;3.60;1.92;;;;;;;30.20;40.53;99035.84;5092969;28;20454;-84
2023/06/12 09:59:27;;;;;;;4.07;2.53;;;;;;;30.00;40.04;99022.53;5093697;28;20036;-83
2023/06/12 10:01:57;;;;;;;4.05;2.22;;;;;;;30.09;40.07;99047.88;5087279;28;20035;-83
2023/06/12 10:04:32;;;;;;;2.13;1.67;;;;;;;30.17;39.30;99046.03;5092082;28;20088;-82
2023/06/12 10:07:06;;;;;;;1.20;0.93;;;;;;;29.80;39.75;99039.09;5082327;28;20526;-82
2023/06/12 10:09:32;;;;;;;2.15;1.50;;;;;;;29.54;40.05;99013.81;5090836;28;20054;-82
2023/06/12 10:11:59;;;;;;;12.13;2.60;;;;;;;29.76;38.17;99013.22;5073946;28;20097;-81
2023/06/12 10:14:29;;;;;;;2.90;1.58;;;;;;;29.41;42.81;99044.09;5096630;28;20092;-83
2023/06/12 10:16:57;;;;;;;1.67;1.00;;;;;;;29.34;41.61;98992.28;5090870;28;20119;-82
2023/06/12 10:19:24;;;;;;;2.80;1.85;;;;;;;29.61;40.76;99017.56;5095442;28;20059;-83
2023/06/12 10:21:53;;;;;;;2.95;1.80;;;;;;;29.30;41.64;98993.63;5074543;28;20113;-83
2023/06/12 10:24:20;;;;;;;2.10;1.65;;;;;;;29.21;40.65;99005.44;5090253;28;20032;-83
2023/06/12 10:26:46;;;;;;;8.27;2.42;;;;;;;29.84;40.94;99026.03;5074772;28;20609;-84
2023/06/12 10:29:31;;;;;;;3.75;2.45;;;;;;;29.79;39.64;98988.44;5093032;28;20036;-82
2023/06/12 10:32:03;;;;;;;2.28;1.63;;;;;;;30.26;38.62;99036.06;5074668;28;20034;-84
2023/06/12 10:34:31;;;;;;;2.08;1.42;;;;;;;29.96;41.78;98985.81;5092318;28;20036;-84
2023/06/12 10:36:56;;;;;;;3.88;2.47;;;;;;;29.71;41.33;99006.59;5094793;28;20452;-82
2023/06/12 10:39:24;;;;;;;2.72;1.75;;;;;;;30.07;40.56;99000.97;5078018;28;20035;-83
2023/06/12 10:41:57;;;;;;;5.30;2.13;;;;;;;30.74;40.87;99000.97;5095192;28;20103;-84
2023/06/12 10:44:38;;;;;;;5.00;2.35;;;;;;;30.73;41.96;99033.78;5075552;28;20512;-84
2023/06/12 10:47:05;;;;;;;2.90;1.65;;;;;;;30.69;39.44;98995.16;5096810;28;20177;-83
2023/06/12 10:49:30;;;;;;;2.75;1.98;;;;;;;30.85;38.79;99006.03;5079713;28;20569;-84
2023/06/12 10:51:59;;;;;;;5.57;2.40;;;;;;;30.62;39.91;99019.47;5080321;28;20244;-84
2023/06/12 10:54:27;;;;;;;2.00;1.40;;;;;;;30.40;41.13;98976.59;5095157;27;20573;-83
2023/06/12 10:56:58;;;;;;;5.18;1.90;;;;;;;30.38;39.60;98992.19;5096307;27;20047;-83
2023/06/12 10:59:34;;;;;;;2.92;2.00;;;;;;;30.15;38.79;98981.94;5092280;28;20085;-82
2023/06/12 11:02:01;;;;;;;2.42;1.50;;;;;;;30.11;37.38;98992.31;5100314;28;20042;-83
2023/06/12 11:04:26;;;;;;;2.75;1.65;;;;;;;30.09;38.35;98959.00;5092227;28;20028;-83
2023/06/12 11:06:52;;;;;;;2.83;1.88;;;;;;;30.71;37.77;98955.88;5076064;28;20485;-83
2023/06/12 11:09:18;;;;;;;4.20;1.95;;;;;;;30.31;39.67;98953.94;5112237;28;20087;-83
2023/06/12 11:11:50;;;;;;;2.63;1.80;;;;;;;30.68;39.52;98986.16;5113108;28;20034;-83
2023/06/12 11:14:16;;;;;;;2.85;1.92;;;;;;;30.31;40.00;98946.63;5094219;28;20401;-84
2023/06/12 11:16:42;;;;;;;3.60;1.73;;;;;;;29.91;39.22;98963.72;5112916;28;20036;-82
2023/06/12 11:19:08;;;;;;;1.90;1.42;;;;;;;29.75;40.12;98986.19;5099748;27;20043;-83
2023/06/12 11:21:37;;;;;;;2.88;1.77;;;;;;;29.49;40.39;98978.97;5100287;28;20036;-83
2023/06/12 11:24:07;;;;;;;5.80;2.05;;;;;;;29.34;41.67;98957.00;5109190;28;20443;-82
2023/06/12 11:26:33;;;;;;;13.43;2.78;;;;;;;29.31;41.86;98972.75;5112658;28;20032;-83
2023/06/12 11:29:19;;;;;;;1.85;1.33;;;;;;;28.94;39.53;98966.53;5106386;28;20401;-83
2023/06/12 11:32:01;;;;;;;2.00;1.20;;;;;;;28.47;40.48;98956.81;5073962;28;20069;-82
2023/06/12 11:34:36;;;;;;;4.93;1.35;;;;;;;28.46;40.88;98954.25;5091573;28;20040;-83